»·PEaware :: NWA1187 KLAS-KSLC

NWA1187 :: KLAS-KSLC

FLIGHT INFORMATION

Flight Status: Arrived
Operator:
Northwest Airlines
More flights by this operator :: More flights under this callsign
Pilot: Anonymous 12254 (12254)
Aircraft: SAAB 340
(SF34)
More flights by this aircraft type
Origin: KLAS McCarran Intl
United States
Destination: KSLC Salt Lake City Intl
United States
More flights between these airports :: More routes between these airports
Route: +STAAV8 MLF JAMMN5
File this flight plan on PilotEdge
Remarks:
Altitude:
(Current/Filed)
21,000ft
Speed:
(Current/Filed)
250kts
Departed: 16-May-19 10:39 AM
Arrived: 16-May-19 11:59 AM
Distance/Time
Traveled:
319nm/1:19
Distance/Time
To Go:
Arrived

Flight Plot

Page will automatically refresh every two minutes.

Flight plan parsing failed; only flown route is shown


Map Options




Map Legend


Flown Route
Filed Route
Departure Airport
Arrival Airport
Navaid (VOR, NDB)
Fix

Horizontal Profiles

Position Reports

Time Latitude Longitude Heading Altitude Ground
Speed
16-May-19 10:17 36.079616 -115.131510 180 2048ft 0kts
16-May-19 10:18 36.079616 -115.131510 180 2048ft 0kts
16-May-19 10:19 36.079616 -115.131510 180 2048ft 0kts
16-May-19 10:20 36.079616 -115.131510 180 2048ft 0kts
16-May-19 10:21 36.079616 -115.131510 180 2048ft 0kts
16-May-19 10:22 36.079616 -115.131510 180 2048ft 0kts
16-May-19 10:23 36.079616 -115.131510 180 2048ft 0kts
16-May-19 10:24 36.079616 -115.131510 180 2048ft 0kts
16-May-19 10:25 36.079616 -115.131510 180 2048ft 0kts
16-May-19 10:26 36.079616 -115.131510 180 2048ft 0kts
16-May-19 10:27 36.079616 -115.131510 180 2048ft 0kts
16-May-19 10:28 36.079616 -115.131510 180 2048ft 0kts
16-May-19 10:29 36.079616 -115.131510 180 2048ft 0kts
16-May-19 10:30 36.079616 -115.131510 180 2048ft 0kts
16-May-19 10:31 36.079616 -115.131510 180 2048ft 0kts
16-May-19 10:32 36.079616 -115.131510 180 2048ft 0kts
16-May-19 10:33 36.079616 -115.131510 180 2048ft 0kts
16-May-19 10:34 36.079396 -115.131511 179 2049ft 6kts
16-May-19 10:35 36.078277 -115.127976 91 2041ft 16kts
16-May-19 10:36 36.077882 -115.122051 133 2033ft 19kts
16-May-19 10:37 36.076433 -115.121714 269 2035ft 12kts
16-May-19 10:38 36.075965 -115.161569 265 2852ft 160kts
16-May-19 10:39 36.076252 -115.216990 265 4920ft 162kts
16-May-19 10:40 36.087789 -115.283515 323 5024ft 251kts
16-May-19 10:41 36.154821 -115.285102 40 5872ft 256kts
16-May-19 10:42 36.188086 -115.211989 70 7236ft 236kts
16-May-19 10:43 36.196791 -115.137422 96 9158ft 208kts
16-May-19 10:44 36.197546 -115.068388 98 10932ft 194kts
16-May-19 10:45 36.198248 -115.003510 100 12597ft 181kts
16-May-19 10:46 36.198837 -114.942674 102 13990ft 179kts
16-May-19 10:47 36.199448 -114.878374 101 14982ft 195kts
16-May-19 10:48 36.200143 -114.801497 97 15011ft 245kts
16-May-19 10:49 36.251968 -114.733482 40 15002ft 294kts
16-May-19 10:50 36.318107 -114.670216 40 14995ft 303kts
16-May-19 10:51 36.385376 -114.606014 40 15015ft 305kts
16-May-19 10:52 36.450577 -114.544263 40 15804ft 284kts
16-May-19 10:53 36.511912 -114.486009 40 16671ft 272kts
16-May-19 10:54 36.573009 -114.433564 34 17735ft 259kts
16-May-19 10:55 36.632840 -114.387094 34 18808ft 252kts
16-May-19 10:56 36.693937 -114.339749 34 19967ft 267kts
16-May-19 10:57 36.758417 -114.289707 34 21007ft 280kts
16-May-19 10:58 36.830170 -114.233902 34 21024ft 322kts
16-May-19 10:59 36.907746 -114.173463 34 21011ft 326kts
16-May-19 11:00 36.984363 -114.113622 34 21013ft 323kts
16-May-19 11:01 37.060378 -114.054121 35 21017ft 322kts
16-May-19 11:02 37.135836 -113.994879 36 20985ft 322kts
16-May-19 11:03 37.211532 -113.935280 36 20985ft 321kts
16-May-19 11:04 37.287294 -113.875517 36 20987ft 320kts
16-May-19 11:05 37.362349 -113.816186 36 20988ft 318kts
16-May-19 11:06 37.437104 -113.756924 36 20988ft 316kts
16-May-19 11:07 37.511369 -113.697927 36 20996ft 315kts
16-May-19 11:08 37.585634 -113.638791 36 21017ft 315kts
16-May-19 11:09 37.659864 -113.579534 36 21046ft 315kts
16-May-19 11:10 37.734069 -113.520159 36 21059ft 316kts
16-May-19 11:11 37.808401 -113.460542 36 21061ft 317kts
16-May-19 11:12 37.883142 -113.400442 36 21062ft 318kts
16-May-19 11:13 37.957784 -113.340285 37 21061ft 318kts
16-May-19 11:14 38.032552 -113.279871 37 21062ft 318kts
16-May-19 11:15 38.107178 -113.219431 37 21042ft 319kts
16-May-19 11:16 38.181101 -113.159412 37 21013ft 316kts
16-May-19 11:17 38.255147 -113.099134 37 21004ft 315kts
16-May-19 11:18 38.328914 -113.038957 37 21005ft 315kts
16-May-19 11:19 38.406915 -112.988784 25 21009ft 317kts
16-May-19 11:20 38.488076 -112.945268 24 21009ft 316kts
16-May-19 11:21 38.569195 -112.901942 24 21011ft 314kts
16-May-19 11:22 38.649643 -112.858888 24 21011ft 313kts
16-May-19 11:23 38.729623 -112.815973 24 21012ft 311kts
16-May-19 11:24 38.809280 -112.773124 24 21012ft 309kts
16-May-19 11:25 38.888629 -112.730340 24 21012ft 309kts
16-May-19 11:26 38.967748 -112.687582 24 21008ft 308kts
16-May-19 11:27 39.046375 -112.644956 25 21006ft 306kts
16-May-19 11:28 39.124615 -112.602447 25 20995ft 304kts
16-May-19 11:29 39.201524 -112.560562 25 20996ft 301kts
16-May-19 11:30 39.278506 -112.518541 25 20997ft 300kts
16-May-19 11:31 39.358610 -112.487001 15 20999ft 301kts
16-May-19 11:32 39.440244 -112.459881 15 20999ft 301kts
16-May-19 11:33 39.521464 -112.432903 15 21001ft 302kts
16-May-19 11:34 39.603046 -112.405735 15 21002ft 302kts
16-May-19 11:35 39.685429 -112.378223 15 20353ft 306kts
16-May-19 11:36 39.767295 -112.350845 15 19230ft 300kts
16-May-19 11:37 39.847340 -112.323996 16 18057ft 296kts
16-May-19 11:38 39.926752 -112.297278 15 16808ft 289kts
16-May-19 11:39 40.003879 -112.271294 16 15364ft 278kts
16-May-19 11:40 40.078266 -112.246164 16 13880ft 271kts
16-May-19 11:41 40.148394 -112.222435 16 12962ft 242kts
16-May-19 11:42 40.208100 -112.202198 16 12973ft 207kts
16-May-19 11:43 40.261776 -112.183958 16 12995ft 195kts
16-May-19 11:44 40.315450 -112.165658 16 13001ft 201kts
16-May-19 11:45 40.370028 -112.147031 16 12992ft 203kts
16-May-19 11:46 40.424976 -112.128259 16 12980ft 204kts
16-May-19 11:47 40.480191 -112.109369 16 12965ft 205kts
16-May-19 11:48 40.535970 -112.090247 16 12819ft 213kts
16-May-19 11:49 40.598540 -112.068832 17 11421ft 240kts
16-May-19 11:50 40.661783 -112.068466 354 11022ft 206kts
16-May-19 11:51 40.715461 -112.075798 355 11031ft 184kts
16-May-19 11:52 40.765841 -112.082519 355 11030ft 179kts
16-May-19 11:53 40.823922 -112.090186 355 8989ft 224kts
16-May-19 11:54 40.876719 -112.073101 80 6670ft 200kts
16-May-19 11:55 40.878098 -112.015048 149 5998ft 129kts
16-May-19 11:56 40.849827 -112.003055 180 5138ft 139kts
16-May-19 11:57 40.813125 -111.999848 173 4349ft 119kts
16-May-19 11:58 40.792948 -111.997259 170 4220ft 34kts

Navigation Log

Ident Type
Flight plan parsing failed, navigation log unavailable